sensor_id;sensor_type;location;lat;lon;timestamp;pressure;altitude;pressure_sealevel;temperature;humidity
57827;BME280;43656;57.746;11.780;2022-07-23T00:01:41;101199.91;;;17.58;100.00
57827;BME280;43656;57.746;11.780;2022-07-23T00:04:06;101205.50;;;17.63;100.00
57827;BME280;43656;57.746;11.780;2022-07-23T00:06:32;101205.50;;;17.63;100.00
57827;BME280;43656;57.746;11.780;2022-07-23T00:08:57;101216.75;;;17.67;100.00
57827;BME280;43656;57.746;11.780;2022-07-23T00:21:43;101216.00;;;17.36;100.00
57827;BME280;43656;57.746;11.780;2022-07-23T00:26:44;101209.28;;;17.38;100.00
57827;BME280;43656;57.746;11.780;2022-07-23T00:52:25;101190.97;;;16.43;100.00
57827;BME280;43656;57.746;11.780;2022-07-23T00:54:52;101195.13;;;16.46;100.00
57827;BME280;43656;57.746;11.780;2022-07-23T00:57:19;101193.97;;;16.35;100.00
57827;BME280;43656;57.746;11.780;2022-07-23T00:59:45;101186.97;;;16.28;100.00
57827;BME280;43656;57.746;11.780;2022-07-23T01:02:10;101178.69;;;16.23;100.00
57827;BME280;43656;57.746;11.780;2022-07-23T01:04:36;101192.09;;;16.17;100.00
57827;BME280;43656;57.746;11.780;2022-07-23T01:07:01;101191.13;;;16.12;100.00
57827;BME280;43656;57.746;11.780;2022-07-23T01:09:28;101194.91;;;16.11;100.00
57827;BME280;43656;57.746;11.780;2022-07-23T01:11:56;101204.03;;;16.16;100.00
57827;BME280;43656;57.746;11.780;2022-07-23T01:14:23;101209.84;;;16.20;100.00
57827;BME280;43656;57.746;11.780;2022-07-23T01:16:50;101204.78;;;16.24;100.00
57827;BME280;43656;57.746;11.780;2022-07-23T01:19:16;101212.09;;;16.23;100.00
57827;BME280;43656;57.746;11.780;2022-07-23T01:26:51;101210.81;;;16.07;100.00
57827;BME280;43656;57.746;11.780;2022-07-23T01:29:17;101210.81;;;16.07;100.00
57827;BME280;43656;57.746;11.780;2022-07-23T01:31:44;101209.75;;;15.90;100.00
57827;BME280;43656;57.746;11.780;2022-07-23T01:34:09;101202.44;;;15.90;100.00
57827;BME280;43656;57.746;11.780;2022-07-23T01:36:35;101206.13;;;15.96;100.00
57827;BME280;43656;57.746;11.780;2022-07-23T02:10:06;101210.16;;;15.68;100.00
57827;BME280;43656;57.746;11.780;2022-07-23T02:12:32;101209.94;;;15.70;100.00
57827;BME280;43656;57.746;11.780;2022-07-23T02:15:12;101198.72;;;15.66;100.00
57827;BME280;43656;57.746;11.780;2022-07-23T02:20:26;101195.16;;;15.59;100.00
57827;BME280;43656;57.746;11.780;2022-07-23T02:22:52;101194.34;;;15.59;100.00
57827;BME280;43656;57.746;11.780;2022-07-23T02:25:17;101200.13;;;15.69;100.00
57827;BME280;43656;57.746;11.780;2022-07-23T02:27:43;101202.88;;;15.62;100.00
57827;BME280;43656;57.746;11.780;2022-07-23T02:30:08;101209.78;;;15.58;100.00
57827;BME280;43656;57.746;11.780;2022-07-23T02:32:34;101215.66;;;15.55;100.00
57827;BME280;43656;57.746;11.780;2022-07-23T02:35:02;101216.72;;;15.54;100.00
57827;BME280;43656;57.746;11.780;2022-07-23T02:37:28;101215.06;;;15.53;100.00
57827;BME280;43656;57.746;11.780;2022-07-23T02:39:56;101171.09;;;15.19;100.00
57827;BME280;43656;57.746;11.780;2022-07-23T02:42:21;101211.13;;;15.49;100.00
57827;BME280;43656;57.746;11.780;2022-07-23T02:44:49;101221.28;;;15.60;100.00
57827;BME280;43656;57.746;11.780;2022-07-23T02:47:15;101219.19;;;15.56;100.00
57827;BME280;43656;57.746;11.780;2022-07-23T02:49:41;101220.25;;;15.55;100.00
57827;BME280;43656;57.746;11.780;2022-07-23T02:52:06;101208.97;;;15.58;100.00
57827;BME280;43656;57.746;11.780;2022-07-23T02:54:31;101210.41;;;15.60;100.00
57827;BME280;43656;57.746;11.780;2022-07-23T02:56:57;101219.88;;;15.51;100.00
57827;BME280;43656;57.746;11.780;2022-07-23T03:01:57;101208.22;;;15.50;100.00
57827;BME280;43656;57.746;11.780;2022-07-23T03:04:23;101212.50;;;15.58;100.00
57827;BME280;43656;57.746;11.780;2022-07-23T03:06:48;101221.72;;;15.57;100.00
57827;BME280;43656;57.746;11.780;2022-07-23T03:09:14;101227.78;;;15.52;100.00
57827;BME280;43656;57.746;11.780;2022-07-23T03:11:39;101227.72;;;15.59;100.00
57827;BME280;43656;57.746;11.780;2022-07-23T03:14:05;101225.88;;;15.60;100.00
57827;BME280;43656;57.746;11.780;2022-07-23T03:16:30;101230.81;;;15.63;100.00
57827;BME280;43656;57.746;11.780;2022-07-23T03:18:56;101228.09;;;15.63;100.00
57827;BME280;43656;57.746;11.780;2022-07-23T03:21:21;101237.53;;;15.60;100.00
57827;BME280;43656;57.746;11.780;2022-07-23T03:23:47;101237.75;;;15.59;100.00
57827;BME280;43656;57.746;11.780;2022-07-23T03:26:12;101244.38;;;15.63;100.00
57827;BME280;43656;57.746;11.780;2022-07-23T03:28:37;101234.97;;;15.65;100.00
57827;BME280;43656;57.746;11.780;2022-07-23T03:31:03;101241.19;;;15.72;100.00
57827;BME280;43656;57.746;11.780;2022-07-23T03:33:28;101236.84;;;15.71;100.00
57827;BME280;43656;57.746;11.780;2022-07-23T03:35:54;101236.41;;;15.74;100.00
57827;BME280;43656;57.746;11.780;2022-07-23T03:38:19;101224.09;;;15.72;100.00
57827;BME280;43656;57.746;11.780;2022-07-23T03:40:45;101232.69;;;15.69;100.00
57827;BME280;43656;57.746;11.780;2022-07-23T03:43:11;101230.53;;;15.78;100.00
57827;BME280;43656;57.746;11.780;2022-07-23T03:45:36;101227.56;;;15.79;100.00
57827;BME280;43656;57.746;11.780;2022-07-23T03:48:02;101231.34;;;15.78;100.00
57827;BME280;43656;57.746;11.780;2022-07-23T03:50:27;101231.34;;;15.78;100.00
57827;BME280;43656;57.746;11.780;2022-07-23T03:52:52;101222.16;;;15.79;100.00
57827;BME280;43656;57.746;11.780;2022-07-23T03:55:19;101227.13;;;15.82;100.00
57827;BME280;43656;57.746;11.780;2022-07-23T03:57:44;101231.22;;;15.91;100.00
57827;BME280;43656;57.746;11.780;2022-07-23T04:02:54;101224.97;;;15.91;100.00
57827;BME280;43656;57.746;11.780;2022-07-23T04:05:20;101226.19;;;15.95;100.00
57827;BME280;43656;57.746;11.780;2022-07-23T04:07:45;101216.94;;;16.03;100.00
57827;BME280;43656;57.746;11.780;2022-07-23T04:10:11;101209.63;;;16.03;100.00
57827;BME280;43656;57.746;11.780;2022-07-23T04:12:36;101220.69;;;16.02;100.00
57827;BME280;43656;57.746;11.780;2022-07-23T04:15:01;101220.09;;;16.00;100.00
57827;BME280;43656;57.746;11.780;2022-07-23T04:17:27;101210.19;;;16.05;100.00
57827;BME280;43656;57.746;11.780;2022-07-23T04:19:53;101216.84;;;16.09;100.00
57827;BME280;43656;57.746;11.780;2022-07-23T04:22:18;101211.13;;;16.17;100.00
57827;BME280;43656;57.746;11.780;2022-07-23T04:24:44;101209.59;;;16.21;100.00
57827;BME280;43656;57.746;11.780;2022-07-23T04:27:09;101208.63;;;16.16;100.00
57827;BME280;43656;57.746;11.780;2022-07-23T04:29:34;101205.38;;;16.26;100.00
57827;BME280;43656;57.746;11.780;2022-07-23T04:32:00;101207.41;;;16.30;100.00
57827;BME280;43656;57.746;11.780;2022-07-23T04:34:26;101207.88;;;16.27;100.00
57827;BME280;43656;57.746;11.780;2022-07-23T04:36:52;101200.34;;;16.29;100.00
57827;BME280;43656;57.746;11.780;2022-07-23T04:39:17;101198.75;;;16.40;100.00
57827;BME280;43656;57.746;11.780;2022-07-23T04:41:43;101210.78;;;16.44;100.00
57827;BME280;43656;57.746;11.780;2022-07-23T04:44:08;101209.56;;;16.58;100.00
57827;BME280;43656;57.746;11.780;2022-07-23T04:46:34;101203.38;;;16.51;100.00
57827;BME280;43656;57.746;11.780;2022-07-23T04:48:59;101205.13;;;16.45;100.00
57827;BME280;43656;57.746;11.780;2022-07-23T04:51:24;101199.41;;;16.35;100.00
57827;BME280;43656;57.746;11.780;2022-07-23T04:53:50;101203.19;;;16.34;100.00
57827;BME280;43656;57.746;11.780;2022-07-23T04:56:16;101198.66;;;16.47;100.00
57827;BME280;43656;57.746;11.780;2022-07-23T04:58:41;101195.31;;;16.44;100.00
57827;BME280;43656;57.746;11.780;2022-07-23T05:01:07;101191.94;;;16.49;100.00
57827;BME280;43656;57.746;11.780;2022-07-23T05:03:35;101193.53;;;16.38;100.00
57827;BME280;43656;57.746;11.780;2022-07-23T05:06:00;101193.88;;;16.42;100.00
57827;BME280;43656;57.746;11.780;2022-07-23T05:08:26;101134.81;;;16.07;100.00
57827;BME280;43656;57.746;11.780;2022-07-23T05:10:52;101184.25;;;16.46;100.00
57827;BME280;43656;57.746;11.780;2022-07-23T05:13:17;101187.00;;;16.58;100.00
57827;BME280;43656;57.746;11.780;2022-07-23T05:15:43;101177.41;;;16.55;100.00
57827;BME280;43656;57.746;11.780;2022-07-23T05:18:08;101175.41;;;16.51;100.00
57827;BME280;43656;57.746;11.780;2022-07-23T05:20:34;101180.75;;;16.39;100.00
57827;BME280;43656;57.746;11.780;2022-07-23T05:25:34;101187.03;;;16.39;100.00
57827;BME280;43656;57.746;11.780;2022-07-23T05:28:00;101184.41;;;16.33;100.00
57827;BME280;43656;57.746;11.780;2022-07-23T05:30:26;101192.56;;;16.14;100.00
57827;BME280;43656;57.746;11.780;2022-07-23T05:32:52;101201.25;;;16.23;100.00
57827;BME280;43656;57.746;11.780;2022-07-23T05:35:17;101202.81;;;16.31;100.00
57827;BME280;43656;57.746;11.780;2022-07-23T05:37:42;101199.84;;;16.32;100.00
57827;BME280;43656;57.746;11.780;2022-07-23T05:40:09;101206.97;;;16.33;100.00
57827;BME280;43656;57.746;11.780;2022-07-23T05:45:10;101200.78;;;16.26;100.00
57827;BME280;43656;57.746;11.780;2022-07-23T05:47:39;101195.00;;;16.23;100.00
57827;BME280;43656;57.746;11.780;2022-07-23T05:50:04;101201.38;;;16.28;100.00
57827;BME280;43656;57.746;11.780;2022-07-23T05:52:30;101201.25;;;16.23;100.00
57827;BME280;43656;57.746;11.780;2022-07-23T06:00:06;101206.13;;;16.33;100.00
57827;BME280;43656;57.746;11.780;2022-07-23T06:02:33;101209.53;;;16.28;100.00
57827;BME280;43656;57.746;11.780;2022-07-23T06:04:58;101204.84;;;16.35;100.00
57827;BME280;43656;57.746;11.780;2022-07-23T06:07:24;101200.56;;;16.28;100.00
57827;BME280;43656;57.746;11.780;2022-07-23T06:09:49;101197.75;;;16.34;100.00
57827;BME280;43656;57.746;11.780;2022-07-23T06:12:15;101196.56;;;16.30;100.00
57827;BME280;43656;57.746;11.780;2022-07-23T06:14:40;101194.13;;;16.40;100.00
57827;BME280;43656;57.746;11.780;2022-07-23T06:17:06;101197.38;;;16.49;100.00
57827;BME280;43656;57.746;11.780;2022-07-23T06:19:31;101190.06;;;16.50;100.00
57827;BME280;43656;57.746;11.780;2022-07-23T06:21:56;101185.06;;;16.47;100.00
57827;BME280;43656;57.746;11.780;2022-07-23T06:45:03;101182.59;;;16.75;100.00
57827;BME280;43656;57.746;11.780;2022-07-23T06:52:34;101185.63;;;16.85;100.00
57827;BME280;43656;57.746;11.780;2022-07-23T06:54:59;101182.19;;;16.90;100.00
57827;BME280;43656;57.746;11.780;2022-07-23T06:57:25;101191.53;;;16.94;100.00
57827;BME280;43656;57.746;11.780;2022-07-23T07:07:36;101202.47;;;17.06;100.00
57827;BME280;43656;57.746;11.780;2022-07-23T07:10:02;101203.84;;;16.97;100.00
57827;BME280;43656;57.746;11.780;2022-07-23T07:12:28;101200.97;;;16.91;100.00
57827;BME280;43656;57.746;11.780;2022-07-23T07:32:58;101210.09;;;16.97;100.00
57827;BME280;43656;57.746;11.780;2022-07-23T07:35:24;101209.41;;;17.02;100.00
57827;BME280;43656;57.746;11.780;2022-07-23T07:53:20;101206.66;;;17.44;100.00
57827;BME280;43656;57.746;11.780;2022-07-23T07:55:47;101210.56;;;17.48;100.00
57827;BME280;43656;57.746;11.780;2022-07-23T08:05:58;101227.38;;;17.56;100.00
57827;BME280;43656;57.746;11.780;2022-07-23T08:23:55;101230.63;;;17.77;100.00
57827;BME280;43656;57.746;11.780;2022-07-23T08:26:21;101240.72;;;17.58;100.00
57827;BME280;43656;57.746;11.780;2022-07-23T08:28:47;101236.53;;;17.86;100.00
57827;BME280;43656;57.746;11.780;2022-07-23T10:08:13;101272.28;;;18.01;100.00
57827;BME280;43656;57.746;11.780;2022-07-23T10:10:41;101283.53;;;18.04;100.00
57827;BME280;43656;57.746;11.780;2022-07-23T10:13:08;101285.53;;;17.86;100.00
57827;BME280;43656;57.746;11.780;2022-07-23T10:15:37;101278.91;;;17.81;100.00
57827;BME280;43656;57.746;11.780;2022-07-23T11:30:56;101282.28;;;18.99;100.00
57827;BME280;43656;57.746;11.780;2022-07-23T11:33:23;101279.72;;;18.93;100.00
57827;BME280;43656;57.746;11.780;2022-07-23T11:35:50;101282.63;;;18.74;100.00
57827;BME280;43656;57.746;11.780;2022-07-23T11:38:24;101273.38;;;18.75;100.00
57827;BME280;43656;57.746;11.780;2022-07-23T11:40:53;101285.69;;;18.66;100.00
57827;BME280;43656;57.746;11.780;2022-07-23T13:18:12;101273.19;;;19.39;100.00
57827;BME280;43656;57.746;11.780;2022-07-23T13:28:22;101273.34;;;19.33;100.00
57827;BME280;43656;57.746;11.780;2022-07-23T13:48:54;101267.47;;;20.25;100.00
57827;BME280;43656;57.746;11.780;2022-07-23T15:03:59;101289.66;;;20.29;100.00
57827;BME280;43656;57.746;11.780;2022-07-23T15:06:25;101288.94;;;20.16;100.00
57827;BME280;43656;57.746;11.780;2022-07-23T15:50:04;101260.72;;;20.11;100.00
57827;BME280;43656;57.746;11.780;2022-07-23T16:18:21;101276.19;;;19.38;100.00
57827;BME280;43656;57.746;11.780;2022-07-23T16:41:30;101282.78;;;19.25;100.00
57827;BME280;43656;57.746;11.780;2022-07-23T18:01:30;101346.53;;;19.07;100.00
57827;BME280;43656;57.746;11.780;2022-07-23T19:26:39;101388.66;;;17.64;100.00
57827;BME280;43656;57.746;11.780;2022-07-23T19:29:05;101382.75;;;17.67;100.00
57827;BME280;43656;57.746;11.780;2022-07-23T19:31:30;101384.66;;;17.66;100.00
57827;BME280;43656;57.746;11.780;2022-07-23T19:33:55;101385.25;;;17.68;100.00
57827;BME280;43656;57.746;11.780;2022-07-23T19:36:21;101385.63;;;17.72;100.00
57827;BME280;43656;57.746;11.780;2022-07-23T19:38:46;101389.16;;;17.72;100.00
57827;BME280;43656;57.746;11.780;2022-07-23T19:41:12;101385.97;;;17.75;100.00
57827;BME280;43656;57.746;11.780;2022-07-23T19:43:37;101389.84;;;17.68;100.00
57827;BME280;43656;57.746;11.780;2022-07-23T20:01:35;101402.53;;;17.44;100.00
57827;BME280;43656;57.746;11.780;2022-07-23T20:14:22;101399.06;;;17.55;100.00
57827;BME280;43656;57.746;11.780;2022-07-23T21:37:14;101431.28;;;17.40;100.00
57827;BME280;43656;57.746;11.780;2022-07-23T21:39:39;101431.84;;;17.42;100.00
57827;BME280;43656;57.746;11.780;2022-07-23T21:42:06;101429.53;;;17.45;100.00
57827;BME280;43656;57.746;11.780;2022-07-23T22:07:47;101433.00;;;17.52;100.00
57827;BME280;43656;57.746;11.780;2022-07-23T22:10:13;101444.25;;;17.56;100.00
57827;BME280;43656;57.746;11.780;2022-07-23T22:30:46;101446.78;;;17.39;100.00
57827;BME280;43656;57.746;11.780;2022-07-23T22:38:22;101439.53;;;17.33;100.00
